createdAt,value
2023-01-30T00:01:19.712Z,18913.59
2023-01-30T00:03:49.269Z,18929.88
2023-01-30T00:06:17.986Z,18907.50
2023-01-30T00:08:46.459Z,18899.38
2023-01-30T00:11:17.621Z,18933.94
2023-01-30T00:13:46.287Z,18903.44
2023-01-30T00:16:14.606Z,18891.25
2023-01-30T00:18:44.249Z,18923.78
2023-01-30T00:21:16.107Z,18927.84
2023-01-30T00:23:45.394Z,18935.97
2023-01-30T00:26:14.103Z,18911.56
2023-01-30T00:28:42.320Z,18911.56
2023-01-30T00:31:10.943Z,18946.13
2023-01-30T00:33:40.139Z,18917.66
2023-01-30T00:36:10.516Z,18895.31
2023-01-30T00:38:40.303Z,18905.47
2023-01-30T00:41:10.592Z,18925.81
2023-01-30T00:44:04.745Z,18919.69
2023-01-30T00:46:52.634Z,18893.28
2023-01-30T00:49:21.320Z,18899.38
2023-01-30T00:51:49.456Z,18915.63
2023-01-30T00:54:18.915Z,18940.03
2023-01-30T00:56:47.189Z,18921.75
2023-01-30T00:59:15.496Z,18897.34
2023-01-30T01:01:43.728Z,18921.75
2023-01-30T01:04:12.229Z,18881.09
2023-01-30T01:06:41.747Z,18897.34
2023-01-30T01:09:10.275Z,18877.03
2023-01-30T01:11:39.833Z,18895.31
2023-01-30T01:14:08.746Z,18891.25
2023-01-30T01:16:37.497Z,18897.34
2023-01-30T01:19:06.314Z,18895.31
2023-01-30T01:21:34.499Z,18870.94
2023-01-30T01:24:02.683Z,18909.53
2023-01-30T01:26:30.940Z,18899.38
2023-01-30T01:29:01.001Z,18919.69
2023-01-30T01:31:29.446Z,18899.38
2023-01-30T01:33:58.421Z,18919.69
2023-01-30T01:36:52.075Z,18935.97
2023-01-30T01:39:14.754Z,18885.16
2023-01-30T01:41:41.922Z,18925.81
2023-01-30T01:44:13.606Z,18950.19
2023-01-30T01:46:48.360Z,18917.66
2023-01-30T01:49:23.859Z,18893.28
2023-01-30T01:51:59.990Z,18875.00
2023-01-30T01:54:37.440Z,18923.78
2023-01-30T01:57:13.742Z,18919.69
2023-01-30T01:59:49.909Z,18925.81
2023-01-30T02:02:19.527Z,18940.03
2023-01-30T02:05:06.503Z,18909.53
2023-01-30T02:07:41.054Z,18929.88
2023-01-30T02:10:14.880Z,18944.09
2023-01-30T02:12:44.819Z,18933.94
2023-01-30T02:15:14.534Z,18933.94
2023-01-30T02:17:42.703Z,18923.78
2023-01-30T02:20:27.264Z,18940.03
2023-01-30T02:23:50.746Z,18956.28
2023-01-30T02:26:54.183Z,18946.13
2023-01-30T02:30:07.674Z,18944.09
2023-01-30T02:32:50.697Z,18925.81
2023-01-30T02:35:34.577Z,18933.94
2023-01-30T02:38:20.943Z,18942.06
2023-01-30T02:41:03.334Z,18940.03
2023-01-30T02:43:45.541Z,18940.03
2023-01-30T02:46:21.407Z,18923.78
2023-01-30T02:48:58.901Z,18927.84
2023-01-30T02:51:32.653Z,18940.03
2023-01-30T02:54:01.362Z,18956.28
2023-01-30T02:56:29.580Z,18970.50
2023-01-30T02:59:02.705Z,18960.34
2023-01-30T03:02:17.196Z,18960.34
2023-01-30T03:05:22.676Z,18950.19
2023-01-30T03:08:03.926Z,18919.69
2023-01-30T03:10:42.400Z,18960.34
2023-01-30T03:13:21.041Z,18944.09
2023-01-30T03:15:56.441Z,18970.50
2023-01-30T03:18:24.700Z,18984.72
2023-01-30T03:20:54.734Z,18970.50
2023-01-30T03:23:22.947Z,18974.56
2023-01-30T03:25:51.168Z,18984.72
2023-01-30T03:28:22.323Z,18960.34
2023-01-30T03:30:50.571Z,18990.81
2023-01-30T03:33:18.794Z,18946.13
2023-01-30T03:35:46.977Z,18960.34
2023-01-30T03:38:16.675Z,18944.09
2023-01-30T03:40:44.974Z,18976.59
2023-01-30T03:43:13.204Z,18988.78
2023-01-30T03:45:41.253Z,19013.16
2023-01-30T03:48:09.425Z,19005.03
2023-01-30T03:50:37.659Z,18976.59
2023-01-30T03:53:05.824Z,18992.84
2023-01-30T03:55:35.265Z,19005.03
2023-01-30T03:58:03.695Z,18996.91
2023-01-30T04:00:31.885Z,19003.00
2023-01-30T04:03:00.000Z,18962.38
2023-01-30T04:05:28.129Z,18974.56
2023-01-30T04:07:58.707Z,18974.56
2023-01-30T04:10:27.940Z,18996.91
2023-01-30T04:12:57.579Z,18972.53
2023-01-30T04:15:25.762Z,18982.69
2023-01-30T04:17:53.910Z,19005.03
2023-01-30T04:20:22.049Z,18980.66
2023-01-30T04:22:50.175Z,19000.97
2023-01-30T04:25:18.603Z,18994.88
2023-01-30T04:27:46.926Z,18976.59
2023-01-30T04:30:17.061Z,19011.13
2023-01-30T04:32:45.177Z,18988.78
2023-01-30T04:35:13.508Z,19007.06
2023-01-30T04:37:41.672Z,18976.59
2023-01-30T04:40:11.939Z,19013.16
2023-01-30T04:42:40.080Z,18994.88
2023-01-30T04:45:09.717Z,19005.03
2023-01-30T04:47:39.214Z,18988.78
2023-01-30T04:50:08.927Z,18986.75
2023-01-30T04:52:38.922Z,19027.41
2023-01-30T04:55:08.880Z,19011.13
2023-01-30T04:57:36.979Z,19007.06
2023-01-30T05:00:06.967Z,19005.03
2023-01-30T05:02:35.157Z,18996.91
2023-01-30T05:05:04.847Z,19007.06
2023-01-30T05:07:32.991Z,18988.78
2023-01-30T05:10:02.785Z,19019.28
2023-01-30T05:12:31.337Z,19011.13
2023-01-30T05:14:59.462Z,19049.75
2023-01-30T05:17:27.679Z,19025.38
2023-01-30T05:19:55.804Z,19005.03
2023-01-30T05:22:25.627Z,19011.13
2023-01-30T05:24:53.841Z,19021.31
2023-01-30T05:27:22.013Z,19013.16
2023-01-30T05:29:50.142Z,19025.38
2023-01-30T05:32:21.134Z,19033.50
2023-01-30T05:34:50.451Z,19013.16
2023-01-30T05:37:18.575Z,19033.50
2023-01-30T05:39:48.057Z,19017.25
2023-01-30T05:42:17.126Z,18998.94
2023-01-30T05:44:45.973Z,19021.31
2023-01-30T05:47:14.391Z,19041.63
2023-01-30T05:49:43.041Z,19041.63
2023-01-30T05:52:11.088Z,19031.47
2023-01-30T05:54:39.141Z,19009.09
2023-01-30T05:57:08.520Z,19009.09
2023-01-30T05:59:36.565Z,19045.69
2023-01-30T06:02:04.626Z,19047.72
2023-01-30T06:04:32.648Z,19009.09
2023-01-30T06:07:00.682Z,18990.81
2023-01-30T06:09:28.742Z,19013.16
2023-01-30T06:11:56.738Z,18994.88
2023-01-30T06:14:26.125Z,18972.53
2023-01-30T06:16:54.379Z,19021.31
2023-01-30T06:19:22.490Z,19033.50
2023-01-30T06:21:50.564Z,19027.41
2023-01-30T06:24:18.648Z,19005.03
2023-01-30T06:26:46.768Z,18986.75
2023-01-30T06:29:15.170Z,19019.28
2023-01-30T06:31:44.660Z,19057.88
2023-01-30T06:34:13.059Z,19023.34
2023-01-30T06:36:41.131Z,19009.09
2023-01-30T06:39:09.370Z,19053.81
2023-01-30T06:41:37.494Z,19023.34
2023-01-30T06:44:06.099Z,19041.63
2023-01-30T06:46:34.293Z,19000.97
2023-01-30T06:49:03.801Z,19011.13
2023-01-30T06:51:32.472Z,19017.25
2023-01-30T06:54:00.617Z,18982.69
2023-01-30T06:56:28.794Z,19031.47
2023-01-30T06:58:56.917Z,19015.19
2023-01-30T07:01:25.017Z,19009.09
2023-01-30T07:03:53.123Z,19023.34
2023-01-30T07:06:22.594Z,19023.34
2023-01-30T07:08:50.661Z,19025.38
2023-01-30T07:11:18.729Z,18986.75
2023-01-30T07:13:46.830Z,18990.81
2023-01-30T07:16:14.870Z,19033.50
2023-01-30T07:18:42.920Z,19000.97
2023-01-30T07:21:10.977Z,19015.19
2023-01-30T07:23:40.361Z,18946.13
2023-01-30T07:26:08.479Z,19007.06
2023-01-30T07:28:36.590Z,19005.03
2023-01-30T07:31:04.678Z,18964.41
2023-01-30T07:33:32.735Z,18976.59
2023-01-30T07:36:00.776Z,19003.00
2023-01-30T07:38:28.851Z,19013.16
2023-01-30T07:40:59.927Z,18986.75
2023-01-30T07:43:28.021Z,19025.38
2023-01-30T07:45:56.062Z,19025.38
2023-01-30T07:48:24.110Z,19013.16
2023-01-30T07:50:52.533Z,19023.34
2023-01-30T07:53:20.571Z,19039.59
2023-01-30T07:55:48.892Z,19023.34
2023-01-30T07:58:18.356Z,19053.81
2023-01-30T08:00:46.643Z,19068.03
2023-01-30T08:03:16.651Z,19053.81
2023-01-30T08:05:46.843Z,19029.44
2023-01-30T08:08:15.241Z,19033.50
2023-01-30T08:10:43.383Z,19053.81
2023-01-30T08:13:11.491Z,19037.56
2023-01-30T08:15:41.062Z,19019.28
2023-01-30T08:18:09.161Z,19066.00
2023-01-30T08:20:38.263Z,19049.75
2023-01-30T08:23:06.476Z,19070.06
2023-01-30T08:25:35.383Z,19059.91
2023-01-30T08:28:04.775Z,19053.81
2023-01-30T08:30:32.952Z,19057.88
2023-01-30T08:33:02.592Z,19055.84
2023-01-30T08:35:30.655Z,19074.13
2023-01-30T08:37:59.875Z,19078.19
2023-01-30T08:40:28.320Z,19049.75
2023-01-30T08:42:56.956Z,19116.81
2023-01-30T08:45:25.047Z,19080.22
2023-01-30T08:47:53.100Z,19100.53
2023-01-30T08:50:22.614Z,19059.91
2023-01-30T08:52:50.654Z,19096.47
2023-01-30T08:55:19.068Z,19094.44
2023-01-30T08:57:47.188Z,19090.38
2023-01-30T09:00:17.564Z,19106.66
2023-01-30T09:02:48.569Z,19084.28
2023-01-30T09:05:16.973Z,19096.47
2023-01-30T09:07:46.500Z,19078.19
2023-01-30T09:10:14.868Z,19116.81
2023-01-30T09:12:42.876Z,19118.84
2023-01-30T09:15:12.148Z,19108.69
2023-01-30T09:17:40.242Z,19129.00
2023-01-30T09:20:13.009Z,19116.81
2023-01-30T09:22:41.140Z,19110.72
2023-01-30T09:25:11.115Z,19112.75
2023-01-30T09:27:39.142Z,19088.34
2023-01-30T09:30:09.186Z,19122.91
2023-01-30T09:32:37.492Z,19147.28
2023-01-30T09:35:06.333Z,19129.00
2023-01-30T09:37:34.375Z,19139.16
2023-01-30T09:40:02.409Z,19169.63
2023-01-30T09:43:05.135Z,19173.69
2023-01-30T09:45:46.718Z,19118.84
2023-01-30T09:48:27.953Z,19159.47
2023-01-30T09:51:22.994Z,19122.91
2023-01-30T09:54:17.929Z,19155.41
2023-01-30T09:56:46.381Z,19169.63
2023-01-30T09:59:28.906Z,19157.44
2023-01-30T10:02:25.778Z,19149.31
2023-01-30T10:05:01.884Z,19155.41
2023-01-30T10:07:57.143Z,19165.56
2023-01-30T10:10:50.988Z,19175.72
2023-01-30T10:13:43.606Z,19153.38
2023-01-30T10:16:22.658Z,19183.84
2023-01-30T10:19:36.751Z,19171.66
2023-01-30T10:22:22.562Z,19165.56
2023-01-30T10:25:04.237Z,19163.53
2023-01-30T10:27:34.408Z,19153.38
2023-01-30T10:30:08.968Z,19102.56
2023-01-30T10:32:48.250Z,19131.03
2023-01-30T10:35:21.606Z,19116.81
2023-01-30T10:37:59.490Z,19143.22
2023-01-30T10:40:39.301Z,19124.94
2023-01-30T10:43:20.522Z,19133.06
2023-01-30T10:46:02.569Z,19167.59
2023-01-30T10:48:55.352Z,19165.56
2023-01-30T10:51:44.601Z,19145.25
2023-01-30T10:54:22.245Z,19159.47
2023-01-30T10:57:03.173Z,19147.28
2023-01-30T10:59:46.536Z,19122.91
2023-01-30T11:02:26.627Z,19169.63
2023-01-30T11:05:03.744Z,19108.69
2023-01-30T11:07:34.457Z,19143.22
2023-01-30T11:10:02.584Z,19147.28
2023-01-30T11:12:30.665Z,19126.97
2023-01-30T11:15:01.279Z,19139.16
2023-01-30T11:17:38.383Z,19163.53
2023-01-30T11:20:16.014Z,19151.34
2023-01-30T11:22:50.185Z,19139.16
2023-01-30T11:25:22.554Z,19179.78
2023-01-30T11:27:57.902Z,19200.13
2023-01-30T11:30:31.063Z,19155.41
2023-01-30T11:33:13.710Z,19181.81
2023-01-30T11:35:56.897Z,19175.72
2023-01-30T11:38:28.654Z,19194.03
2023-01-30T11:41:19.106Z,19210.28
2023-01-30T11:43:48.257Z,19246.84
2023-01-30T11:46:20.998Z,19204.19
2023-01-30T11:49:32.575Z,19192.00
2023-01-30T11:51:48.565Z,19224.50
2023-01-30T11:54:21.975Z,19234.66
2023-01-30T11:56:56.237Z,19198.09
2023-01-30T11:59:31.729Z,19206.22
2023-01-30T12:02:17.443Z,19185.88
2023-01-30T12:04:47.180Z,19185.88
2023-01-30T12:07:24.651Z,19210.28
2023-01-30T12:09:54.176Z,19189.97
2023-01-30T12:12:35.345Z,19157.44
2023-01-30T12:15:24.239Z,19183.84
2023-01-30T12:18:04.530Z,19175.72
2023-01-30T12:20:50.697Z,19165.56
2023-01-30T12:23:31.163Z,19200.13
2023-01-30T12:26:08.518Z,19181.81
2023-01-30T12:28:48.430Z,19192.00
2023-01-30T12:31:25.825Z,19171.66
2023-01-30T12:33:55.219Z,19220.44
2023-01-30T12:36:42.652Z,19206.22
2023-01-30T12:39:40.846Z,19248.88
2023-01-30T12:42:35.814Z,19222.47
2023-01-30T12:45:21.242Z,19224.50
2023-01-30T12:48:43.921Z,19234.66
2023-01-30T12:51:36.878Z,19214.34
2023-01-30T12:54:20.295Z,19267.16
2023-01-30T12:57:10.136Z,19273.28
2023-01-30T12:59:50.545Z,19267.16
2023-01-30T13:02:48.496Z,19257.00
2023-01-30T13:05:34.048Z,19238.72
2023-01-30T13:08:22.787Z,19226.53
2023-01-30T13:11:04.186Z,19242.78
2023-01-30T13:13:43.010Z,19273.28
2023-01-30T13:16:24.883Z,19254.97
2023-01-30T13:18:59.765Z,19246.84
2023-01-30T13:21:37.808Z,19271.25
2023-01-30T13:24:27.069Z,19250.91
2023-01-30T13:27:01.481Z,19250.91
2023-01-30T13:29:38.908Z,19273.28
2023-01-30T13:32:16.659Z,19222.47
2023-01-30T13:34:49.360Z,19250.91
2023-01-30T13:37:20.196Z,19214.34
2023-01-30T13:39:53.881Z,19208.25
2023-01-30T13:42:34.022Z,19218.41
2023-01-30T13:45:06.013Z,19204.19
2023-01-30T13:47:53.207Z,19192.00
2023-01-30T13:50:56.562Z,19200.13
2023-01-30T13:53:33.712Z,19175.72
2023-01-30T13:56:39.633Z,19212.31
2023-01-30T13:59:26.336Z,19200.13
2023-01-30T14:02:21.600Z,19185.88
2023-01-30T14:04:52.788Z,19198.09
2023-01-30T14:07:29.497Z,19185.88
2023-01-30T14:10:15.255Z,19202.16
2023-01-30T14:12:47.725Z,19200.13
2023-01-30T14:15:28.836Z,19228.56
2023-01-30T14:18:07.204Z,19204.19
2023-01-30T14:20:38.103Z,19263.09
2023-01-30T14:23:20.155Z,19222.47
2023-01-30T14:25:51.734Z,19218.41
2023-01-30T14:28:50.888Z,19202.16
2023-01-30T14:31:53.187Z,19175.72
2023-01-30T14:34:42.134Z,19139.16
2023-01-30T14:38:04.591Z,19139.16
2023-01-30T14:40:47.614Z,19145.25
2023-01-30T14:43:53.107Z,19090.38
2023-01-30T14:46:55.101Z,19129.00
2023-01-30T14:49:31.875Z,19088.34
2023-01-30T14:52:03.416Z,19086.31
2023-01-30T14:54:42.233Z,19086.31
2023-01-30T14:57:32.552Z,19090.38
2023-01-30T15:00:18.542Z,19094.44
2023-01-30T15:02:54.300Z,19066.00
2023-01-30T15:05:32.275Z,19072.09
2023-01-30T15:08:09.449Z,19057.88
2023-01-30T15:10:59.747Z,19080.22
2023-01-30T15:13:43.860Z,19039.59
2023-01-30T15:16:41.222Z,19063.97
2023-01-30T15:19:38.739Z,19066.00
2023-01-30T15:22:23.971Z,19055.84
2023-01-30T15:25:34.700Z,19086.31
2023-01-30T15:28:36.987Z,19072.09
2023-01-30T15:31:12.520Z,19068.03
2023-01-30T15:33:49.405Z,19049.75
2023-01-30T15:36:38.702Z,19033.50
2023-01-30T15:39:20.345Z,19114.78
2023-01-30T15:41:52.495Z,19074.13
2023-01-30T15:44:54.853Z,19061.94
2023-01-30T15:47:48.281Z,19051.78
2023-01-30T15:50:17.462Z,19045.69
2023-01-30T15:52:49.824Z,19086.31
2023-01-30T15:55:24.573Z,19059.91
2023-01-30T15:57:59.135Z,19074.13
2023-01-30T16:00:32.589Z,19086.31
2023-01-30T16:03:05.903Z,19057.88
2023-01-30T16:05:34.144Z,19047.72
2023-01-30T16:08:21.033Z,19059.91
2023-01-30T16:10:49.828Z,19106.66
2023-01-30T16:13:21.032Z,19070.06
2023-01-30T16:15:57.800Z,19059.91
2023-01-30T16:18:34.442Z,19078.19
2023-01-30T16:21:08.549Z,19094.44
2023-01-30T16:23:41.866Z,19096.47
2023-01-30T16:26:21.660Z,19104.59
2023-01-30T16:28:59.507Z,19126.97
2023-01-30T16:31:34.476Z,19092.41
2023-01-30T16:34:03.016Z,19096.47
2023-01-30T16:36:39.202Z,19110.72
2023-01-30T16:39:31.132Z,19106.66
2023-01-30T16:42:02.144Z,19118.84
2023-01-30T16:44:33.237Z,19076.16
2023-01-30T16:47:24.160Z,19096.47
2023-01-30T16:49:54.305Z,19124.94
2023-01-30T16:52:27.206Z,19082.25
2023-01-30T16:54:59.605Z,19100.53
2023-01-30T16:57:36.627Z,19124.94
2023-01-30T17:00:24.317Z,19120.88
2023-01-30T17:02:56.812Z,19139.16
2023-01-30T17:05:28.505Z,19149.31
2023-01-30T17:08:00.470Z,19129.00
2023-01-30T17:11:03.524Z,19155.41
2023-01-30T17:13:37.143Z,19163.53
2023-01-30T17:16:35.182Z,19161.50
2023-01-30T17:19:04.004Z,19183.84
2023-01-30T17:21:44.151Z,19145.25
2023-01-30T17:24:17.391Z,19153.38
2023-01-30T17:26:48.031Z,19159.47
2023-01-30T17:29:23.459Z,19151.34
2023-01-30T17:32:11.159Z,19143.22
2023-01-30T17:34:41.132Z,19129.00
2023-01-30T17:37:16.790Z,19108.69
2023-01-30T17:39:45.228Z,19147.28
2023-01-30T17:42:15.245Z,19137.13
2023-01-30T17:44:43.456Z,19120.88
2023-01-30T17:47:13.482Z,19163.53
2023-01-30T17:49:41.683Z,19139.16
2023-01-30T17:52:10.064Z,19137.13
2023-01-30T17:54:38.117Z,19133.06
2023-01-30T17:57:09.675Z,19135.09
2023-01-30T17:59:37.818Z,19126.97
2023-01-30T18:02:11.661Z,19141.19
2023-01-30T18:04:40.661Z,19135.09
2023-01-30T18:07:14.216Z,19116.81
2023-01-30T18:09:42.299Z,19122.91
2023-01-30T18:12:10.404Z,19155.41
2023-01-30T18:14:38.510Z,19175.72
2023-01-30T18:17:06.747Z,19135.09
2023-01-30T18:19:37.379Z,19118.84
2023-01-30T18:22:05.463Z,19143.22
2023-01-30T18:24:34.256Z,19167.59
2023-01-30T18:27:02.372Z,19153.38
2023-01-30T18:29:30.813Z,19159.47
2023-01-30T18:32:04.862Z,19157.44
2023-01-30T18:34:33.457Z,19145.25
2023-01-30T18:37:03.213Z,19194.03
2023-01-30T18:39:31.876Z,19169.63
2023-01-30T18:42:01.993Z,19198.09
2023-01-30T18:44:30.238Z,19206.22
2023-01-30T18:46:58.583Z,19179.78
2023-01-30T18:49:26.970Z,19175.72
2023-01-30T18:51:55.055Z,19192.00
2023-01-30T18:54:24.537Z,19165.56
2023-01-30T18:56:52.664Z,19153.38
2023-01-30T18:59:20.929Z,19143.22
2023-01-30T19:01:48.986Z,19175.72
2023-01-30T19:04:17.061Z,19147.28
2023-01-30T19:06:45.540Z,19147.28
2023-01-30T19:09:17.285Z,19135.09
2023-01-30T19:12:04.185Z,19155.41
2023-01-30T19:14:32.304Z,19177.75
2023-01-30T19:17:00.417Z,19141.19
2023-01-30T19:19:28.555Z,19151.34
2023-01-30T19:21:56.662Z,19110.72
2023-01-30T19:24:25.093Z,19139.16
2023-01-30T19:26:54.739Z,19124.94
2023-01-30T19:29:23.126Z,19153.38
2023-01-30T19:31:51.265Z,19145.25
2023-01-30T19:34:19.772Z,19102.56
2023-01-30T19:36:48.109Z,19120.88
2023-01-30T19:39:16.243Z,19159.47
2023-01-30T19:41:44.453Z,19118.84
2023-01-30T19:44:14.134Z,19116.81
2023-01-30T19:46:43.094Z,19082.25
2023-01-30T19:49:12.886Z,19116.81
2023-01-30T19:51:41.739Z,19126.97
2023-01-30T19:54:12.800Z,19124.94
2023-01-30T19:56:41.914Z,19108.69
2023-01-30T19:59:13.879Z,19106.66
2023-01-30T20:01:41.993Z,19120.88
2023-01-30T20:04:10.178Z,19116.81
2023-01-30T20:06:39.244Z,19124.94
2023-01-30T20:09:11.083Z,19108.69
2023-01-30T20:11:41.938Z,19106.66
2023-01-30T20:14:11.716Z,19102.56
2023-01-30T20:16:41.726Z,19124.94
2023-01-30T20:19:14.579Z,19106.66
2023-01-30T20:21:43.625Z,19090.38
2023-01-30T20:24:12.913Z,19108.69
2023-01-30T20:26:41.253Z,19114.78
2023-01-30T20:29:11.417Z,19108.69
2023-01-30T20:31:41.009Z,19082.25
2023-01-30T20:34:14.529Z,19102.56
2023-01-30T20:36:42.745Z,19118.84
2023-01-30T20:39:11.406Z,19122.91
2023-01-30T20:41:39.807Z,19122.91
2023-01-30T20:44:13.056Z,19139.16
2023-01-30T20:46:45.728Z,19163.53
2023-01-30T20:49:16.755Z,19161.50
2023-01-30T20:51:46.156Z,19131.03
2023-01-30T20:54:16.082Z,19147.28
2023-01-30T20:56:46.938Z,19143.22
2023-01-30T20:59:17.964Z,19147.28
2023-01-30T21:01:47.768Z,19122.91
2023-01-30T21:04:18.190Z,19118.84
2023-01-30T21:06:47.329Z,19159.47
2023-01-30T21:09:18.551Z,19169.63
2023-01-30T21:11:47.895Z,19161.50
2023-01-30T21:14:17.571Z,19163.53
2023-01-30T21:16:47.725Z,19181.81
2023-01-30T21:19:18.247Z,19157.44
2023-01-30T21:21:50.650Z,19153.38
2023-01-30T21:24:23.722Z,19173.69
2023-01-30T21:26:53.018Z,19155.41
2023-01-30T21:29:24.644Z,19153.38
2023-01-30T21:31:55.500Z,19151.34
2023-01-30T21:34:24.152Z,19181.81
2023-01-30T21:37:06.252Z,19165.56
2023-01-30T21:39:51.618Z,19173.69
2023-01-30T21:42:37.827Z,19163.53
2023-01-30T21:45:07.672Z,19167.59
2023-01-30T21:47:37.342Z,19167.59
2023-01-30T21:50:06.706Z,19161.50
2023-01-30T21:52:34.980Z,19149.31
2023-01-30T21:55:03.073Z,19151.34
2023-01-30T21:57:31.317Z,19157.44
2023-01-30T21:59:59.433Z,19159.47
2023-01-30T22:02:27.591Z,19171.66
2023-01-30T22:04:57.068Z,19141.19
2023-01-30T22:07:25.189Z,19147.28
2023-01-30T22:09:53.281Z,19114.78
2023-01-30T22:12:21.440Z,19153.38
2023-01-30T22:14:49.615Z,19122.91
2023-01-30T22:17:17.799Z,19147.28
2023-01-30T22:19:46.299Z,19110.72
2023-01-30T22:22:15.854Z,19141.19
2023-01-30T22:24:43.974Z,19110.72
2023-01-30T22:27:12.228Z,19124.94
2023-01-30T22:29:40.312Z,19141.19
2023-01-30T22:32:08.481Z,19118.84
2023-01-30T22:34:36.892Z,19098.50
2023-01-30T22:37:05.115Z,19151.34
2023-01-30T22:39:34.616Z,19100.53
2023-01-30T22:42:02.762Z,19106.66
2023-01-30T22:44:30.883Z,19108.69
2023-01-30T22:46:59.036Z,19135.09
2023-01-30T22:49:27.326Z,19124.94
2023-01-30T22:51:55.503Z,19078.19
2023-01-30T22:54:25.032Z,19131.03
2023-01-30T22:56:54.948Z,19102.56
2023-01-30T22:59:23.261Z,19104.59
2023-01-30T23:01:52.069Z,19131.03
2023-01-30T23:04:22.925Z,19104.59
2023-01-30T23:06:52.329Z,19088.34
2023-01-30T23:09:23.567Z,19088.34
2023-01-30T23:12:13.219Z,19122.91
2023-01-30T23:14:42.719Z,19131.03
2023-01-30T23:17:28.191Z,19122.91
2023-01-30T23:19:57.040Z,19110.72
2023-01-30T23:22:25.565Z,19108.69
2023-01-30T23:24:54.047Z,19122.91
2023-01-30T23:27:23.621Z,19110.72
2023-01-30T23:29:51.766Z,19108.69
2023-01-30T23:32:20.135Z,19106.66
2023-01-30T23:34:48.731Z,19086.31
2023-01-30T23:37:17.313Z,19120.88
2023-01-30T23:39:46.499Z,19076.16
2023-01-30T23:42:14.674Z,19084.28
2023-01-30T23:44:44.218Z,19049.75
2023-01-30T23:47:12.341Z,19102.56
2023-01-30T23:49:40.476Z,19055.84
2023-01-30T23:52:11.166Z,19068.03
2023-01-30T23:54:39.732Z,19082.25
2023-01-30T23:57:07.912Z,19059.91
2023-01-30T23:59:36.286Z,19070.06
